createdAt,value
2019-03-25T00:02:21.190Z,92.30
2019-03-25T00:05:00.391Z,91.90
2019-03-25T00:07:39.358Z,91.80
2019-03-25T00:10:18.427Z,91.70
2019-03-25T00:12:57.510Z,91.90
2019-03-25T00:15:36.562Z,91.90
2019-03-25T00:18:15.630Z,92.20
2019-03-25T00:20:54.696Z,92.60
2019-03-25T00:23:33.763Z,92.90
2019-03-25T00:26:12.845Z,93.20
2019-03-25T00:28:51.891Z,93.40
2019-03-25T00:31:30.972Z,93.80
2019-03-25T00:34:10.041Z,94.60
2019-03-25T00:36:49.115Z,94.90
2019-03-25T00:39:28.190Z,95.10
2019-03-25T00:42:07.250Z,95.30
2019-03-25T00:44:46.316Z,95.00
2019-03-25T00:47:25.560Z,95.30
2019-03-25T00:50:04.609Z,95.40
2019-03-25T00:52:43.680Z,95.60
2019-03-25T00:55:22.744Z,95.50
2019-03-25T00:58:01.818Z,95.50
2019-03-25T01:00:40.878Z,96.10
2019-03-25T01:03:19.925Z,96.30
2019-03-25T01:05:58.980Z,96.30
2019-03-25T01:08:38.062Z,96.20
2019-03-25T01:11:17.099Z,96.60
2019-03-25T01:13:56.213Z,96.70
2019-03-25T01:16:35.297Z,96.60
2019-03-25T01:19:14.341Z,96.70
2019-03-25T01:21:53.419Z,96.70
2019-03-25T01:24:32.440Z,96.90
2019-03-25T01:27:11.539Z,96.90
2019-03-25T01:29:50.596Z,97.00
2019-03-25T01:32:29.653Z,96.80
2019-03-25T01:35:08.822Z,96.80
2019-03-25T01:37:47.889Z,96.90
2019-03-25T01:40:26.941Z,97.00
2019-03-25T01:43:06.070Z,97.20
2019-03-25T01:45:45.107Z,97.40
2019-03-25T01:48:24.200Z,97.40
2019-03-25T01:51:03.263Z,97.40
2019-03-25T01:53:42.333Z,97.20
2019-03-25T01:56:21.372Z,96.70
2019-03-25T01:59:00.422Z,96.40
2019-03-25T02:01:39.472Z,96.20
2019-03-25T02:04:18.523Z,96.20
2019-03-25T02:06:57.686Z,96.50
2019-03-25T02:09:36.717Z,96.60
2019-03-25T02:12:15.781Z,96.40
2019-03-25T02:14:54.872Z,96.30
2019-03-25T02:17:33.926Z,96.40
2019-03-25T02:20:13.008Z,96.20
2019-03-25T02:22:52.226Z,96.30
2019-03-25T02:25:31.127Z,96.50
2019-03-25T02:28:10.208Z,96.50
2019-03-25T02:30:49.260Z,96.40
2019-03-25T02:33:28.340Z,96.20
2019-03-25T02:36:07.432Z,96.10
2019-03-25T02:38:46.506Z,96.00
2019-03-25T02:41:25.562Z,95.80
2019-03-25T02:44:04.626Z,95.70
2019-03-25T02:46:43.670Z,95.70
2019-03-25T02:49:22.772Z,94.90
2019-03-25T02:52:01.826Z,94.50
2019-03-25T02:54:40.891Z,94.10
2019-03-25T02:57:19.983Z,94.00
2019-03-25T02:59:58.997Z,93.60
2019-03-25T03:02:38.048Z,93.40
2019-03-25T03:05:17.132Z,93.70
2019-03-25T03:07:56.215Z,93.70
2019-03-25T03:10:35.254Z,94.20
2019-03-25T03:13:14.328Z,94.70
2019-03-25T03:18:39.057Z,95.40
2019-03-25T03:21:18.093Z,95.60
2019-03-25T03:23:57.180Z,95.70
2019-03-25T03:26:36.232Z,96.10
2019-03-25T03:29:15.313Z,96.60
2019-03-25T03:31:54.359Z,96.70
2019-03-25T03:34:33.421Z,96.80
2019-03-25T03:37:12.470Z,97.10
2019-03-25T03:39:51.536Z,97.00
2019-03-25T03:42:30.621Z,96.80
2019-03-25T03:45:09.735Z,96.70
2019-03-25T03:47:48.803Z,96.70
2019-03-25T03:50:31.992Z,96.60
2019-03-25T03:53:11.084Z,96.70
2019-03-25T03:55:50.122Z,96.50
2019-03-25T03:58:29.564Z,96.80
2019-03-25T04:01:08.631Z,96.70
2019-03-25T04:03:47.728Z,96.30
2019-03-25T04:06:26.771Z,96.40
2019-03-25T04:09:06.407Z,96.10
2019-03-25T04:11:45.448Z,96.30
2019-03-25T04:14:24.514Z,96.10
2019-03-25T04:17:03.560Z,95.70
2019-03-25T04:19:42.666Z,95.00
2019-03-25T04:22:21.714Z,94.70
2019-03-25T04:25:00.809Z,94.50
2019-03-25T04:27:39.836Z,94.30
2019-03-25T04:30:19.099Z,93.60
2019-03-25T04:32:58.163Z,93.20
2019-03-25T04:35:37.239Z,93.10
2019-03-25T04:38:16.303Z,93.00
2019-03-25T04:40:55.357Z,92.70
2019-03-25T04:43:34.437Z,93.10
2019-03-25T04:46:13.481Z,92.80
2019-03-25T04:48:52.545Z,92.90
2019-03-25T04:51:31.591Z,93.00
2019-03-25T04:54:10.671Z,92.10
2019-03-25T04:56:49.735Z,92.00
2019-03-25T04:59:28.822Z,92.10
2019-03-25T05:02:07.877Z,92.50
2019-03-25T05:04:46.967Z,92.10
2019-03-25T05:07:26.041Z,91.80
2019-03-25T05:10:05.124Z,91.60
2019-03-25T05:12:44.185Z,90.80
2019-03-25T05:15:23.285Z,90.50
2019-03-25T05:18:02.346Z,90.50
2019-03-25T05:20:41.425Z,90.30
2019-03-25T05:23:20.461Z,90.00
2019-03-25T05:25:59.524Z,90.10
2019-03-25T05:28:38.661Z,90.00
2019-03-25T05:31:17.748Z,89.40
2019-03-25T05:33:56.771Z,88.60
2019-03-25T05:36:35.844Z,89.30
2019-03-25T05:39:15.228Z,88.90
2019-03-25T05:41:54.259Z,88.60
2019-03-25T05:44:33.353Z,88.60
2019-03-25T05:47:12.426Z,88.10
2019-03-25T05:49:51.478Z,89.40
2019-03-25T05:52:30.513Z,90.50
2019-03-25T05:55:09.973Z,91.90
2019-03-25T05:57:49.179Z,92.80
2019-03-25T06:00:31.152Z,93.20
2019-03-25T06:03:10.211Z,93.40
2019-03-25T06:05:49.289Z,92.70
2019-03-25T06:08:28.399Z,92.60
2019-03-25T06:11:07.479Z,92.90
2019-03-25T06:13:46.528Z,92.80
2019-03-25T06:16:25.597Z,93.40
2019-03-25T06:21:48.627Z,92.70
2019-03-25T06:24:27.715Z,92.60
2019-03-25T06:27:14.158Z,92.10
2019-03-25T06:29:45.832Z,91.50
2019-03-25T06:32:24.897Z,91.60
2019-03-25T06:35:03.998Z,91.40
2019-03-25T06:37:43.060Z,91.80
2019-03-25T06:40:22.147Z,92.50
2019-03-25T06:43:01.218Z,92.60
2019-03-25T06:45:40.301Z,92.60
2019-03-25T06:48:19.390Z,92.80
2019-03-25T06:50:58.513Z,91.90
2019-03-25T06:53:37.569Z,91.80
2019-03-25T06:56:16.637Z,92.40
2019-03-25T06:58:55.679Z,96.30
2019-03-25T07:01:34.735Z,97.60
2019-03-25T07:04:13.801Z,99.10
2019-03-25T07:06:52.926Z,99.90
2019-03-25T07:09:31.997Z,99.50
2019-03-25T07:12:11.064Z,99.90
2019-03-25T07:14:50.140Z,99.90
2019-03-25T07:17:29.201Z,99.40
2019-03-25T07:20:08.699Z,99.20
2019-03-25T07:22:47.744Z,98.40
2019-03-25T07:25:26.819Z,98.10
2019-03-25T07:28:05.841Z,97.10
2019-03-25T07:30:44.903Z,96.20
2019-03-25T07:33:23.976Z,95.60
2019-03-25T07:36:03.043Z,94.00
2019-03-25T07:38:42.099Z,94.20
2019-03-25T07:41:21.170Z,93.20
2019-03-25T07:44:00.202Z,92.90
2019-03-25T07:46:39.350Z,92.80
2019-03-25T07:49:18.376Z,92.00
2019-03-25T07:51:57.433Z,91.70
2019-03-25T07:54:36.512Z,91.70
2019-03-25T07:57:15.574Z,92.10
2019-03-25T07:59:54.653Z,90.70
2019-03-25T08:02:33.716Z,91.30
2019-03-25T08:05:12.910Z,91.00
2019-03-25T08:07:52.001Z,91.70
2019-03-25T08:10:41.034Z,91.10
2019-03-25T08:13:20.176Z,91.70
2019-03-25T08:15:59.183Z,92.50
2019-03-25T08:21:26.949Z,91.50
2019-03-25T08:24:06.040Z,86.50
2019-03-25T08:26:45.168Z,84.90
2019-03-25T08:29:24.246Z,82.80
2019-03-25T08:32:03.330Z,83.10
2019-03-25T08:34:42.385Z,82.10
2019-03-25T08:37:21.531Z,82.10
2019-03-25T08:40:00.657Z,80.30
2019-03-25T08:42:39.722Z,81.70
2019-03-25T08:45:18.846Z,79.30
2019-03-25T08:47:57.926Z,77.50
2019-03-25T08:50:37.009Z,79.20
2019-03-25T08:53:16.060Z,79.70
2019-03-25T08:55:55.134Z,79.50
2019-03-25T08:58:34.204Z,79.00
2019-03-25T09:01:13.275Z,78.30
2019-03-25T09:03:52.367Z,79.40
2019-03-25T09:06:31.433Z,78.20
2019-03-25T09:09:11.780Z,79.30
2019-03-25T09:11:51.788Z,77.20
2019-03-25T09:14:29.930Z,77.40
2019-03-25T09:17:09.042Z,77.50
2019-03-25T09:19:48.095Z,77.10
2019-03-25T09:22:27.195Z,76.20
2019-03-25T09:25:06.266Z,75.50
2019-03-25T09:27:45.357Z,74.00
2019-03-25T09:31:21.370Z,74.30
2019-03-25T09:34:00.418Z,73.40
2019-03-25T09:36:39.502Z,73.30
2019-03-25T09:39:18.556Z,73.00
2019-03-25T09:41:57.646Z,71.60
2019-03-25T09:44:36.687Z,70.00
2019-03-25T09:47:15.784Z,66.20
2019-03-25T09:49:54.869Z,61.50
2019-03-25T09:52:38.480Z,65.80
2019-03-25T09:55:13.046Z,68.10
2019-03-25T09:57:52.129Z,69.40
2019-03-25T10:00:35.880Z,68.20
2019-03-25T10:03:14.960Z,69.20
2019-03-25T10:05:54.085Z,68.30
2019-03-25T10:08:33.157Z,69.10
2019-03-25T10:11:12.269Z,66.70
2019-03-25T10:13:51.381Z,66.80
2019-03-25T10:16:30.528Z,67.60
2019-03-25T10:19:10.366Z,66.10
2019-03-25T10:21:48.664Z,66.90
2019-03-25T10:24:28.222Z,66.70
2019-03-25T10:27:06.858Z,67.10
2019-03-25T10:29:45.944Z,66.00
2019-03-25T10:32:25.037Z,64.20
2019-03-25T10:35:04.086Z,65.20
2019-03-25T10:37:43.157Z,63.90
2019-03-25T10:40:22.233Z,63.10
2019-03-25T10:43:01.335Z,64.30
2019-03-25T10:45:40.392Z,65.70
2019-03-25T10:48:19.487Z,68.20
2019-03-25T10:50:58.527Z,68.60
2019-03-25T10:53:37.608Z,68.80
2019-03-25T10:56:16.744Z,67.60
2019-03-25T10:58:58.298Z,67.90
2019-03-25T11:01:34.853Z,66.00
2019-03-25T11:04:13.913Z,65.80
2019-03-25T11:06:53.118Z,64.10
2019-03-25T11:09:32.182Z,63.20
2019-03-25T11:12:11.260Z,60.30
2019-03-25T11:14:50.314Z,59.00
2019-03-25T11:17:29.398Z,57.80
2019-03-25T11:20:08.917Z,57.90
2019-03-25T11:22:47.988Z,60.80
2019-03-25T11:25:27.070Z,60.80
2019-03-25T11:28:06.140Z,60.30
2019-03-25T11:33:40.460Z,61.50
2019-03-25T11:36:19.542Z,61.50
2019-03-25T11:38:58.584Z,61.50
2019-03-25T11:41:37.680Z,60.10
2019-03-25T11:44:16.744Z,61.20
2019-03-25T11:46:55.813Z,59.80
2019-03-25T11:49:34.876Z,59.10
2019-03-25T11:52:13.953Z,58.00
2019-03-25T11:54:52.998Z,57.00
2019-03-25T11:57:32.079Z,57.40
2019-03-25T12:00:11.440Z,56.30
2019-03-25T12:02:50.528Z,56.10
2019-03-25T12:05:29.578Z,55.90
2019-03-25T12:08:08.648Z,57.70
2019-03-25T12:10:47.693Z,59.30
2019-03-25T12:13:26.777Z,59.40
2019-03-25T12:16:05.875Z,63.20
2019-03-25T12:21:29.943Z,67.80
2019-03-25T12:24:09.038Z,67.50
2019-03-25T12:26:48.113Z,68.90
2019-03-25T12:29:30.366Z,68.60
2019-03-25T12:32:06.293Z,74.50
2019-03-25T12:34:45.354Z,84.10
2019-03-25T12:37:24.444Z,87.30
2019-03-25T12:40:03.512Z,90.90
2019-03-25T12:42:42.584Z,95.40
2019-03-25T12:45:21.645Z,98.10
2019-03-25T12:48:00.723Z,99.40
2019-03-25T12:50:39.777Z,99.90
2019-03-25T12:53:18.846Z,99.90
2019-03-25T12:55:57.892Z,99.90
2019-03-25T12:58:36.980Z,99.90
2019-03-25T13:01:16.034Z,99.90
2019-03-25T13:03:55.136Z,99.90
2019-03-25T13:06:34.223Z,99.90
2019-03-25T13:09:13.488Z,99.90
2019-03-25T13:11:52.523Z,99.90
2019-03-25T13:14:31.609Z,99.90
2019-03-25T13:17:10.680Z,99.90
2019-03-25T13:19:49.765Z,99.90
2019-03-25T13:22:28.843Z,99.90
2019-03-25T13:25:07.926Z,99.90
2019-03-25T13:27:46.994Z,99.90
2019-03-25T13:30:26.064Z,99.90
2019-03-25T13:33:05.137Z,99.10
2019-03-25T13:35:44.182Z,97.90
2019-03-25T13:38:23.271Z,97.30
2019-03-25T13:41:02.330Z,92.40
2019-03-25T13:43:43.719Z,78.20
2019-03-25T13:46:20.491Z,69.00
2019-03-25T13:48:59.565Z,59.60
2019-03-25T13:54:26.631Z,55.70
2019-03-25T13:57:05.733Z,57.70
2019-03-25T13:59:44.829Z,62.30
2019-03-25T14:02:24.441Z,60.00
2019-03-25T14:05:03.005Z,61.60
2019-03-25T14:07:42.077Z,66.00
2019-03-25T14:10:21.131Z,67.90
2019-03-25T14:13:00.199Z,73.00
2019-03-25T14:15:39.258Z,78.00
2019-03-25T14:18:18.354Z,83.80
2019-03-25T14:20:57.472Z,87.70
2019-03-25T14:23:36.579Z,90.20
2019-03-25T14:26:15.629Z,91.40
2019-03-25T14:28:54.744Z,92.50
2019-03-25T14:31:33.799Z,95.70
2019-03-25T14:34:14.582Z,97.20
2019-03-25T14:36:51.977Z,98.20
2019-03-25T14:39:31.092Z,99.30
2019-03-25T14:42:10.169Z,99.20
2019-03-25T14:44:49.265Z,98.90
2019-03-25T14:47:28.327Z,99.10
2019-03-25T14:50:07.961Z,99.90
2019-03-25T14:52:47.020Z,99.90
2019-03-25T14:55:26.091Z,99.90
2019-03-25T14:58:05.195Z,99.30
2019-03-25T15:00:44.240Z,99.70
2019-03-25T15:03:23.332Z,94.40
2019-03-25T15:06:02.401Z,84.70
2019-03-25T15:08:41.632Z,76.00
2019-03-25T15:11:20.671Z,66.00
2019-03-25T15:13:59.733Z,62.50
2019-03-25T15:16:39.048Z,60.60
2019-03-25T15:19:18.146Z,53.20
2019-03-25T15:21:57.225Z,49.60
2019-03-25T15:24:36.380Z,50.60
2019-03-25T15:27:15.440Z,52.70
2019-03-25T15:29:54.518Z,56.30
2019-03-25T15:32:33.591Z,62.20
2019-03-25T15:35:12.736Z,67.70
2019-03-25T15:37:51.799Z,70.40
2019-03-25T15:40:33.420Z,72.40
2019-03-25T15:43:12.467Z,71.80
2019-03-25T15:45:52.233Z,72.50
2019-03-25T15:48:30.775Z,73.70
2019-03-25T15:53:56.261Z,84.90
2019-03-25T15:56:35.297Z,92.20
2019-03-25T15:59:14.376Z,97.40
2019-03-25T16:01:53.446Z,99.90
2019-03-25T16:04:32.560Z,95.90
2019-03-25T16:07:11.649Z,85.10
2019-03-25T16:09:50.757Z,74.60
2019-03-25T16:12:29.822Z,71.60
2019-03-25T16:15:08.948Z,68.60
2019-03-25T16:17:47.991Z,66.70
2019-03-25T16:20:27.082Z,67.90
2019-03-25T16:23:06.203Z,69.80
2019-03-25T16:25:45.375Z,70.30
2019-03-25T16:28:24.557Z,72.70
2019-03-25T16:31:03.877Z,75.20
2019-03-25T16:33:43.066Z,77.60
2019-03-25T16:36:22.143Z,80.00
2019-03-25T16:39:01.237Z,82.90
2019-03-25T16:41:40.452Z,86.00
2019-03-25T16:44:19.702Z,87.20
2019-03-25T16:46:58.806Z,88.60
2019-03-25T16:49:37.928Z,90.00
2019-03-25T16:52:17.174Z,91.00
2019-03-25T16:54:56.297Z,90.10
2019-03-25T16:57:35.429Z,89.50
2019-03-25T17:00:14.523Z,90.40
2019-03-25T17:02:53.779Z,91.20
2019-03-25T17:05:32.966Z,92.70
2019-03-25T17:08:12.090Z,92.10
2019-03-25T17:10:51.183Z,90.90
2019-03-25T17:13:30.262Z,87.80
2019-03-25T17:16:09.381Z,86.80
2019-03-25T17:18:48.488Z,87.00
2019-03-25T17:21:27.622Z,88.70
2019-03-25T17:24:06.810Z,90.20
2019-03-25T17:26:45.913Z,91.10
2019-03-25T17:29:25.115Z,91.40
2019-03-25T17:32:04.332Z,91.70
2019-03-25T17:34:49.567Z,92.00
2019-03-25T17:37:28.848Z,92.50
2019-03-25T17:40:08.298Z,93.40
2019-03-25T17:42:47.602Z,93.60
2019-03-25T17:45:26.847Z,93.90
2019-03-25T17:48:29.110Z,94.10
2019-03-25T17:52:10.512Z,94.20
2019-03-25T17:54:49.723Z,94.40
2019-03-25T17:57:28.865Z,94.40
2019-03-25T18:00:08.873Z,94.30
2019-03-25T18:02:48.002Z,93.80
2019-03-25T18:05:27.407Z,93.40
2019-03-25T18:08:06.486Z,92.90
2019-03-25T18:10:45.567Z,92.20
2019-03-25T18:13:24.645Z,91.90
2019-03-25T18:16:06.336Z,92.10
2019-03-25T18:18:46.233Z,92.80
2019-03-25T18:21:25.544Z,93.10
2019-03-25T18:24:04.616Z,94.00
2019-03-25T18:26:43.860Z,96.10
2019-03-25T18:29:22.932Z,98.70
2019-03-25T18:32:02.123Z,99.90
2019-03-25T18:37:29.914Z,99.90
2019-03-25T18:40:09.085Z,99.90
2019-03-25T18:42:48.189Z,99.90
2019-03-25T18:45:27.610Z,99.90
2019-03-25T18:48:06.705Z,99.90
2019-03-25T18:50:45.908Z,99.90
2019-03-25T18:53:25.635Z,99.90
2019-03-25T18:56:09.163Z,99.90
2019-03-25T18:59:12.381Z,99.90
2019-03-25T19:01:54.933Z,99.90
2019-03-25T19:04:33.797Z,99.90
2019-03-25T19:07:18.239Z,99.90
2019-03-25T19:10:02.756Z,99.90
2019-03-25T19:12:42.154Z,99.90
2019-03-25T19:15:21.653Z,99.90
2019-03-25T19:18:00.904Z,99.90
2019-03-25T19:20:40.424Z,99.90
2019-03-25T19:23:19.728Z,99.90
2019-03-25T19:25:59.043Z,99.90
2019-03-25T19:28:38.234Z,99.90
2019-03-25T19:31:17.447Z,99.90
2019-03-25T19:33:56.729Z,99.90
2019-03-25T19:36:35.981Z,99.90
2019-03-25T19:39:15.243Z,99.90
2019-03-25T19:41:57.971Z,99.90
2019-03-25T19:44:37.273Z,99.90
2019-03-25T19:47:17.595Z,99.90
2019-03-25T19:49:56.812Z,99.90
2019-03-25T19:52:36.152Z,99.90
2019-03-25T19:55:15.292Z,99.90
2019-03-25T19:57:54.509Z,99.90
2019-03-25T20:00:41.832Z,99.90
2019-03-25T20:03:21.076Z,99.90
2019-03-25T20:06:00.177Z,99.90
2019-03-25T20:08:39.301Z,99.90
2019-03-25T20:11:19.808Z,99.90
2019-03-25T20:14:26.915Z,99.90
2019-03-25T20:17:06.132Z,99.90
2019-03-25T20:19:47.074Z,99.90
2019-03-25T20:22:26.372Z,99.90
2019-03-25T20:25:06.363Z,99.90
2019-03-25T20:27:45.528Z,99.90
2019-03-25T20:30:24.696Z,99.90
2019-03-25T20:33:09.961Z,99.90
2019-03-25T20:35:49.322Z,99.90
2019-03-25T20:38:28.458Z,99.90
2019-03-25T20:41:07.467Z,99.90
2019-03-25T20:43:46.564Z,99.90
2019-03-25T20:46:25.613Z,99.90
2019-03-25T20:49:04.668Z,99.90
2019-03-25T20:51:43.787Z,99.90
2019-03-25T20:54:22.872Z,99.90
2019-03-25T20:57:02.049Z,99.90
2019-03-25T20:59:41.141Z,99.90
2019-03-25T21:02:20.210Z,99.90
2019-03-25T21:04:59.231Z,99.90
2019-03-25T21:07:38.305Z,99.90
2019-03-25T21:10:17.694Z,99.90
2019-03-25T21:12:56.938Z,99.90
2019-03-25T21:15:36.027Z,99.90
2019-03-25T21:18:15.066Z,99.90
2019-03-25T21:20:54.463Z,99.90
2019-03-25T21:23:33.616Z,99.90
2019-03-25T21:26:12.622Z,99.90
2019-03-25T21:28:51.710Z,99.90
2019-03-25T21:31:30.759Z,99.90
2019-03-25T21:34:09.837Z,99.90
2019-03-25T21:36:48.966Z,99.90
2019-03-25T21:39:28.014Z,99.90
2019-03-25T21:42:07.084Z,99.90
2019-03-25T21:44:46.169Z,99.90
2019-03-25T21:47:25.233Z,99.90
2019-03-25T21:50:04.292Z,99.90
2019-03-25T21:52:43.464Z,99.90
2019-03-25T21:55:22.446Z,99.90
2019-03-25T21:58:01.634Z,99.90
2019-03-25T22:00:40.665Z,99.90
2019-03-25T22:03:19.710Z,99.90
2019-03-25T22:05:58.757Z,99.90
2019-03-25T22:08:37.845Z,99.90
2019-03-25T22:11:16.910Z,99.90
2019-03-25T22:13:55.973Z,99.90
2019-03-25T22:16:35.012Z,99.90
2019-03-25T22:19:14.093Z,99.90
2019-03-25T22:21:53.150Z,99.90
2019-03-25T22:24:32.223Z,99.90
2019-03-25T22:27:11.274Z,99.90
2019-03-25T22:29:50.354Z,99.90
2019-03-25T22:32:29.406Z,99.90
2019-03-25T22:35:08.681Z,99.90
2019-03-25T22:37:47.748Z,99.90
2019-03-25T22:40:28.144Z,99.90
2019-03-25T22:43:07.113Z,99.90
2019-03-25T22:45:46.178Z,99.90
2019-03-25T22:48:25.231Z,99.90
2019-03-25T22:51:04.286Z,99.90
2019-03-25T22:53:43.365Z,99.90
2019-03-25T22:56:22.427Z,99.90
2019-03-25T22:59:01.512Z,99.90
2019-03-25T23:01:40.537Z,99.90
2019-03-25T23:04:19.594Z,99.90
2019-03-25T23:06:58.682Z,99.90
2019-03-25T23:09:38.000Z,99.90
2019-03-25T23:12:17.046Z,99.90
2019-03-25T23:14:56.132Z,99.90
2019-03-25T23:17:35.190Z,99.90
2019-03-25T23:20:14.279Z,99.90
2019-03-25T23:22:53.368Z,99.90
2019-03-25T23:25:32.446Z,99.90
2019-03-25T23:28:11.492Z,99.90
2019-03-25T23:30:50.577Z,99.90
2019-03-25T23:33:29.709Z,99.90
2019-03-25T23:36:08.783Z,99.90
2019-03-25T23:38:47.886Z,99.90
2019-03-25T23:41:26.943Z,99.90
2019-03-25T23:44:06.027Z,99.90
2019-03-25T23:46:45.066Z,99.90
2019-03-25T23:49:24.154Z,99.90
2019-03-25T23:52:03.217Z,99.90
2019-03-25T23:54:42.288Z,99.90
2019-03-25T23:57:21.344Z,99.90
